Terminal Aerodrome Forecast
Issued by NWS Brownsville, TX

Home | Current Version | Previous Version | Text Only | Print | Product List | Glossary On
Versions: 1 2 3 4 5 6 7 8 9 10 11 12
188
FTUS44 KBRO 130520
TAFMFE
TAF
KMFE 130520Z 1306/1406 13005KT P6SM SKC
     FM131200 14004KT 4SM BR SCT250
     FM131500 14006KT P6SM FEW250
     FM131800 14013KT P6SM SKC
     FM140300 13009KT P6SM SKC=

USA.gov is the U.S. government's official web portal to all federal, state and local government web resources and services.